Time;durP1;ratioP1;P1;durP2;ratioP2;P2;SDS_P1;SDS_P2;PMS_P1;PMS_P2;Temp;Humidity;BMP_temperature;BMP_pressure;BME280_temperature;BME280_humidity;BME280_pressure;Samples;Min_cycle;Max_cycle;Signal;HPM_P1;HPM_P2
2021/07/07 00:00:23;;;;;;;;;1.00;1.00;;;;;23.64;41.94;100717.94;5078054;28;45397;-59
2021/07/07 00:02:49;;;;;;;;;3.00;3.00;;;;;23.64;41.81;100707.34;5078058;28;45299;-59
2021/07/07 00:05:17;;;;;;;;;3.00;3.00;;;;;23.63;41.92;100706.50;5078653;27;45555;-59
2021/07/07 00:07:43;;;;;;;;;5.00;4.00;;;;;23.65;42.23;100716.13;5078204;27;45245;-59
2021/07/07 00:10:13;;;;;;;;;3.25;3.00;;;;;23.64;41.79;100717.94;5077829;27;45783;-59
2021/07/07 00:12:39;;;;;;;;;2.50;2.50;;;;;23.63;42.05;100719.72;5077974;27;45331;-60
2021/07/07 00:15:08;;;;;;;;;3.50;3.50;;;;;23.63;41.80;100717.06;5078125;27;45248;-60
2021/07/07 00:17:33;;;;;;;;;3.50;2.00;;;;;23.63;42.00;100721.53;5077595;27;45481;-59
2021/07/07 00:19:59;;;;;;;;;3.00;2.00;;;;;23.61;41.80;100718.97;5076440;28;45269;-59
2021/07/07 00:22:24;;;;;;;;;5.00;3.50;;;;;23.61;41.81;100720.78;5076651;27;45401;-59
2021/07/07 00:24:50;;;;;;;;;3.00;3.00;;;;;23.61;41.57;100726.09;5076642;28;45548;-59
2021/07/07 00:27:15;;;;;;;;;3.00;3.00;;;;;23.61;41.97;100729.56;5077796;27;46444;-59
2021/07/07 00:29:42;;;;;;;;;2.25;2.25;;;;;23.60;41.79;100734.97;5077594;27;45386;-59
2021/07/07 00:32:08;;;;;;;;;2.25;2.25;;;;;23.60;41.98;100727.88;5076489;28;45453;-59
2021/07/07 00:34:33;;;;;;;;;5.75;5.00;;;;;23.60;41.73;100732.31;5077844;28;45168;-59
2021/07/07 00:36:59;;;;;;;;;3.00;3.00;;;;;23.59;41.94;100741.22;5077408;28;45223;-60
2021/07/07 00:39:24;;;;;;;;;2.00;2.00;;;;;23.59;42.13;100736.75;5077418;27;45549;-58
2021/07/07 00:41:49;;;;;;;;;2.25;2.25;;;;;23.58;41.76;100736.88;5077470;28;45290;-59
2021/07/07 00:44:15;;;;;;;;;6.25;3.75;;;;;23.57;41.94;100727.25;5077810;28;45212;-59
2021/07/07 00:46:41;;;;;;;;;4.00;3.25;;;;;23.57;42.09;100735.19;5077332;27;45925;-60
2021/07/07 00:49:08;;;;;;;;;2.50;1.25;;;;;23.56;41.87;100730.84;5077249;28;45778;-61
2021/07/07 00:51:34;;;;;;;;;6.00;4.00;;;;;23.58;41.94;100739.53;5076274;28;45521;-59
2021/07/07 00:54:00;;;;;;;;;3.75;3.75;;;;;23.56;42.09;100741.41;5077538;27;45275;-60
2021/07/07 00:56:28;;;;;;;;;2.50;2.50;;;;;23.53;41.90;100728.44;5076994;27;46116;-60
2021/07/07 00:58:56;;;;;;;;;2.00;2.00;;;;;23.55;42.08;100730.00;5077275;27;45721;-60
2021/07/07 01:01:22;;;;;;;;;3.00;3.00;;;;;23.53;42.15;100718.69;5077309;27;45287;-59
2021/07/07 01:03:48;;;;;;;;;3.75;3.75;;;;;23.57;42.09;100737.81;5077653;28;45211;-59
2021/07/07 01:06:13;;;;;;;;;3.00;3.00;;;;;23.57;42.26;100736.03;5077207;27;45366;-60
2021/07/07 01:08:39;;;;;;;;;2.00;2.00;;;;;23.56;42.03;100737.00;5077105;27;45410;-60
2021/07/07 01:11:04;;;;;;;;;3.25;3.00;;;;;23.53;42.10;100729.25;5075701;28;45501;-59
2021/07/07 01:13:31;;;;;;;;;2.00;2.00;;;;;23.57;42.21;100727.25;5077264;27;45455;-60
2021/07/07 01:15:58;;;;;;;;;4.25;3.00;;;;;23.56;42.11;100737.00;5076769;27;46308;-60
2021/07/07 01:18:24;;;;;;;;;3.00;2.00;;;;;23.57;42.34;100729.88;5076934;28;45342;-60
2021/07/07 01:20:49;;;;;;;;;3.25;2.75;;;;;23.56;42.30;100737.00;5076998;27;45244;-60
2021/07/07 01:23:15;;;;;;;;;5.00;3.75;;;;;23.55;42.15;100730.00;5077364;27;45488;-60
2021/07/07 01:25:41;;;;;;;;;3.00;1.75;;;;;23.53;42.35;100731.91;5076686;27;47207;-60
2021/07/07 01:28:06;;;;;;;;;5.00;3.00;;;;;23.55;42.47;100723.84;5076873;27;45722;-60
2021/07/07 01:30:33;;;;;;;;;2.00;2.00;;;;;23.55;42.05;100729.16;5076889;28;45243;-60
2021/07/07 01:32:59;;;;;;;;;2.00;2.00;;;;;23.54;42.27;100724.81;5077110;27;45453;-59
2021/07/07 01:35:25;;;;;;;;;3.50;2.50;;;;;23.53;42.28;100723.13;5076704;27;45468;-60
2021/07/07 01:37:52;;;;;;;;;2.00;2.00;;;;;23.54;42.35;100727.44;5076626;27;45644;-60
2021/07/07 01:40:20;;;;;;;;;4.50;3.50;;;;;23.53;42.31;100725.78;5076944;27;45404;-60
2021/07/07 01:42:46;;;;;;;;;2.50;2.00;;;;;23.52;42.38;100729.38;5077107;27;45572;-60
2021/07/07 01:45:12;;;;;;;;;5.00;3.00;;;;;23.52;42.26;100734.66;5076412;27;46101;-60
2021/07/07 01:47:38;;;;;;;;;3.25;3.25;;;;;23.50;42.35;100732.13;5076563;27;45236;-60
2021/07/07 01:50:10;;;;;;;;;3.00;3.00;;;;;23.52;42.24;100729.38;5076538;27;45353;-59
2021/07/07 01:52:36;;;;;;;;;4.50;3.00;;;;;23.51;42.55;100732.97;5076617;27;45330;-60
2021/07/07 01:55:04;;;;;;;;;3.00;3.00;;;;;23.51;42.24;100738.25;5076215;27;45248;-59
2021/07/07 01:57:43;;;;;;;;;4.50;3.50;;;;;23.50;42.62;100741.88;5076340;27;45261;-60
2021/07/07 02:00:12;;;;;;;;;5.75;4.00;;;;;23.50;42.53;100736.56;5076378;27;45320;-59
2021/07/07 02:02:38;;;;;;;;;3.00;3.00;;;;;23.49;42.44;100734.88;5076496;27;45202;-60
2021/07/07 02:05:04;;;;;;;;;3.00;2.50;;;;;23.49;42.97;100734.88;5075968;28;46152;-60
2021/07/07 02:07:30;;;;;;;;;3.00;3.00;;;;;23.48;42.53;100728.75;5076254;27;45325;-60
2021/07/07 02:09:55;;;;;;;;;2.00;2.00;;;;;23.48;42.67;100728.75;5076281;28;45345;-60
2021/07/07 02:12:21;;;;;;;;;3.75;2.75;;;;;23.48;42.59;100723.47;5076792;27;45462;-59
2021/07/07 02:14:46;;;;;;;;;2.00;2.00;;;;;23.46;42.60;100726.19;5076082;27;45919;-59
2021/07/07 02:17:11;;;;;;;;;3.00;3.00;;;;;23.49;42.65;100725.13;5076261;28;45408;-60
2021/07/07 02:19:36;;;;;;;;;4.00;4.00;;;;;23.49;42.57;100734.88;5074859;28;45845;-59
2021/07/07 02:22:02;;;;;;;;;2.25;2.25;;;;;23.49;42.75;100730.41;5076484;27;45915;-59
2021/07/07 02:24:27;;;;;;;;;3.00;3.00;;;;;23.47;42.60;100727.06;5075897;28;45361;-60
2021/07/07 02:26:53;;;;;;;;;3.00;3.00;;;;;23.47;42.59;100727.88;5076109;28;45318;-60
2021/07/07 02:29:18;;;;;;;;;3.25;3.25;;;;;23.49;42.51;100724.28;5076216;28;45355;-60
2021/07/07 02:31:43;;;;;;;;;3.25;3.25;;;;;23.49;42.88;100729.59;5076200;28;45593;-60
2021/07/07 02:34:09;;;;;;;;;4.00;2.00;;;;;23.47;42.76;100733.19;5075718;27;45674;-60
2021/07/07 02:36:34;;;;;;;;;3.75;3.75;;;;;23.49;42.67;100729.59;5075857;27;45286;-59
2021/07/07 02:39:00;;;;;;;;;4.50;2.75;;;;;23.47;42.37;100727.88;5075780;28;45332;-59
2021/07/07 02:41:25;;;;;;;;;2.50;2.50;;;;;23.47;42.43;100733.19;5076085;27;45386;-59
2021/07/07 02:43:50;;;;;;;;;5.50;3.75;;;;;23.46;42.66;100739.41;5076389;28;45213;-59
2021/07/07 02:46:16;;;;;;;;;3.25;2.00;;;;;23.46;42.52;100739.41;5077870;28;45251;-60
2021/07/07 02:48:41;;;;;;;;;2.75;2.75;;;;;23.47;42.86;100743.75;5079289;27;45227;-60
2021/07/07 02:51:06;;;;;;;;;2.75;2.00;;;;;23.48;42.90;100739.34;5079423;28;45399;-60
2021/07/07 02:53:32;;;;;;;;;2.00;2.00;;;;;23.45;42.52;100735.09;5078996;27;46104;-60
2021/07/07 02:55:57;;;;;;;;;2.00;2.00;;;;;23.48;42.66;100744.63;5079031;27;45344;-60
2021/07/07 02:58:22;;;;;;;;;4.00;2.00;;;;;23.47;42.72;100742.94;5079419;28;45324;-60
2021/07/07 03:00:49;;;;;;;;;3.00;3.00;;;;;23.48;42.67;100744.63;5079345;28;45567;-60
2021/07/07 03:03:26;;;;;;;;;5.25;4.00;;;;;23.47;42.80;100750.88;5078938;27;46154;-60
2021/07/07 03:05:58;;;;;;;;;3.00;3.00;;;;;23.46;43.10;100751.81;5079181;27;45448;-60
2021/07/07 03:08:26;;;;;;;;;2.00;2.00;;;;;23.45;42.93;100740.38;5079331;27;45437;-60
2021/07/07 03:10:53;;;;;;;;;4.50;2.75;;;;;23.46;43.00;100757.94;5079397;27;45506;-60
2021/07/07 03:13:22;;;;;;;;;2.00;2.00;;;;;23.46;42.79;100751.81;5078936;27;46792;-60
2021/07/07 03:15:48;;;;;;;;;2.75;2.75;;;;;23.46;42.66;100757.94;5078862;27;45492;-60
2021/07/07 03:18:14;;;;;;;;;2.75;2.75;;;;;23.44;42.99;100754.53;5078811;27;45453;-60
2021/07/07 03:20:42;;;;;;;;;3.50;2.25;;;;;23.45;43.16;100755.41;5079023;28;45492;-60
2021/07/07 03:23:10;;;;;;;;;4.25;4.25;;;;;23.44;42.71;100754.53;5078475;28;45254;-60
2021/07/07 03:25:36;;;;;;;;;3.00;2.00;;;;;23.44;43.25;100753.72;5078632;27;45243;-60
2021/07/07 03:28:02;;;;;;;;;2.25;2.25;;;;;23.44;43.25;100757.19;5078724;28;45283;-59
2021/07/07 03:30:28;;;;;;;;;4.25;3.00;;;;;23.45;43.12;100764.19;5078729;27;45425;-60
2021/07/07 03:32:54;;;;;;;;;2.75;2.00;;;;;23.44;43.27;100767.78;5078761;27;45288;-59
2021/07/07 03:35:20;;;;;;;;;3.50;3.00;;;;;23.43;43.07;100763.44;5078489;28;45417;-59
2021/07/07 03:37:45;;;;;;;;;3.50;3.50;;;;;23.43;43.40;100767.88;5078542;28;45348;-60
2021/07/07 03:40:11;;;;;;;;;3.75;3.00;;;;;23.41;43.33;100757.44;5078568;27;45611;-60
2021/07/07 03:42:38;;;;;;;;;3.00;3.00;;;;;23.42;43.12;100761.75;5078131;27;46127;-59
2021/07/07 03:45:04;;;;;;;;;4.00;4.00;;;;;23.41;43.37;100760.06;5078230;28;45331;-59
2021/07/07 03:47:30;;;;;;;;;4.00;2.50;;;;;23.38;43.53;100760.28;5078355;27;45342;-59
2021/07/07 03:49:55;;;;;;;;;2.00;2.00;;;;;23.38;43.17;100762.91;5078791;28;45520;-59
2021/07/07 03:52:21;;;;;;;;;3.75;3.75;;;;;23.39;43.43;100772.53;5078193;28;46003;-59
2021/07/07 03:54:46;;;;;;;;;3.75;2.75;;;;;23.39;43.36;100764.63;5078082;27;45312;-60
2021/07/07 03:57:11;;;;;;;;;4.00;4.00;;;;;23.38;43.62;100768.22;5075969;28;45729;-59
2021/07/07 03:59:37;;;;;;;;;1.75;1.50;;;;;23.37;43.11;100766.50;5078357;27;45381;-59
2021/07/07 04:02:02;;;;;;;;;2.50;2.50;;;;;23.38;43.47;100770.84;5077864;27;45988;-60
2021/07/07 04:04:28;;;;;;;;;3.75;2.00;;;;;23.38;43.79;100767.34;5077925;27;45392;-60
2021/07/07 04:06:57;;;;;;;;;3.00;3.00;;;;;23.34;43.62;100769.34;5078406;27;45260;-59
2021/07/07 04:09:25;;;;;;;;;2.00;2.00;;;;;23.36;43.35;100785.13;5078283;28;45282;-60
2021/07/07 04:11:50;;;;;;;;;4.50;3.25;;;;;23.35;43.34;100786.91;5077830;27;46647;-60
2021/07/07 04:14:22;;;;;;;;;3.25;3.25;;;;;23.31;43.52;100785.47;5077640;28;45368;-60
2021/07/07 04:16:48;;;;;;;;;3.00;3.00;;;;;23.30;43.63;100787.25;5077912;28;45437;-61
2021/07/07 04:19:13;;;;;;;;;3.75;3.75;;;;;23.27;43.74;100792.72;5078048;27;45362;-58
2021/07/07 04:21:38;;;;;;;;;5.25;4.00;;;;;23.26;43.94;100798.97;5077603;28;45506;-58
2021/07/07 04:24:04;;;;;;;;;4.25;3.00;;;;;23.25;43.56;100791.16;5077573;27;45250;-59
2021/07/07 04:26:29;;;;;;;;;3.00;3.00;;;;;23.22;43.70;100792.22;5077728;27;45239;-60
2021/07/07 04:28:55;;;;;;;;;5.00;5.00;;;;;23.22;43.87;100791.34;5076630;27;45558;-60
2021/07/07 04:31:21;;;;;;;;;3.00;3.00;;;;;23.22;43.84;100807.22;5076290;28;45325;-59
2021/07/07 04:33:46;;;;;;;;;4.00;2.00;;;;;23.20;43.71;100809.13;5077589;27;45222;-59
2021/07/07 04:36:12;;;;;;;;;6.00;3.50;;;;;23.19;44.05;100815.34;5077670;27;45452;-59
2021/07/07 04:38:37;;;;;;;;;3.50;3.00;;;;;23.19;43.75;100812.69;5077698;27;45515;-59
2021/07/07 04:41:02;;;;;;;;;5.50;4.50;;;;;23.15;44.07;100810.25;5077234;27;46146;-59
2021/07/07 04:43:28;;;;;;;;;3.50;2.50;;;;;23.16;44.01;100814.59;5077616;27;45394;-59
2021/07/07 04:45:53;;;;;;;;;6.00;5.00;;;;;23.15;44.30;100817.34;5077582;27;45527;-59
2021/07/07 04:48:18;;;;;;;;;4.00;4.00;;;;;23.14;44.07;100816.47;5077626;28;45368;-59
2021/07/07 04:50:44;;;;;;;;;3.00;3.00;;;;;23.13;44.48;100825.34;5077064;28;45415;-59
2021/07/07 04:53:09;;;;;;;;;3.75;3.75;;;;;23.13;44.13;100828.00;5077190;27;45333;-60
2021/07/07 04:55:34;;;;;;;;;6.75;4.00;;;;;23.15;44.27;100828.75;5077333;28;45457;-60
2021/07/07 04:58:00;;;;;;;;;5.50;4.25;;;;;23.18;44.17;100838.28;5077792;27;45920;-61
2021/07/07 05:00:25;;;;;;;;;3.25;3.00;;;;;23.20;44.35;100827.63;5077263;27;45731;-60
2021/07/07 05:02:51;;;;;;;;;6.00;4.00;;;;;23.20;44.03;100835.56;5076819;27;45409;-61
2021/07/07 05:05:19;;;;;;;;;3.75;3.50;;;;;23.24;44.26;100837.03;5077210;28;45302;-60
2021/07/07 05:07:46;;;;;;;;;5.00;3.75;;;;;23.24;44.25;100848.47;5075617;28;45498;-60
2021/07/07 05:10:12;;;;;;;;;2.50;2.50;;;;;23.25;44.21;100844.91;5076866;27;46257;-60
2021/07/07 05:12:38;;;;;;;;;5.25;3.75;;;;;23.26;44.25;100840.44;5076861;27;45993;-60
2021/07/07 05:15:05;;;;;;;;;5.00;4.00;;;;;23.28;44.24;100849.13;5077129;27;45354;-60
2021/07/07 05:17:31;;;;;;;;;4.75;4.75;;;;;23.28;44.37;100846.47;5077292;27;45873;-60
2021/07/07 05:19:58;;;;;;;;;6.25;3.50;;;;;23.29;44.49;100850.81;5077040;27;45409;-60
2021/07/07 05:22:24;;;;;;;;;4.50;4.50;;;;;23.27;44.33;100848.25;5076955;27;45439;-60
2021/07/07 05:24:50;;;;;;;;;3.75;3.50;;;;;23.28;44.24;100857.06;5076827;27;45252;-60
2021/07/07 05:27:15;;;;;;;;;2.25;2.25;;;;;23.29;44.54;100861.41;5076935;27;45496;-60
2021/07/07 05:29:41;;;;;;;;;4.25;4.00;;;;;23.28;44.45;100854.41;5075387;28;48198;-60
2021/07/07 05:32:06;;;;;;;;;3.00;3.00;;;;;23.29;44.33;100856.09;5076727;28;45439;-60
2021/07/07 05:34:32;;;;;;;;;4.25;3.00;;;;;23.28;44.30;100854.41;5076915;27;45316;-61
2021/07/07 05:36:57;;;;;;;;;4.00;3.50;;;;;23.28;44.65;100863.19;5077263;27;45592;-59
2021/07/07 05:39:23;;;;;;;;;4.00;4.00;;;;;23.28;44.39;100855.25;5076240;27;46993;-59
2021/07/07 05:41:48;;;;;;;;;5.25;4.25;;;;;23.30;44.21;100852.50;5076555;27;45544;-59
2021/07/07 05:44:14;;;;;;;;;3.50;3.50;;;;;23.28;44.38;100854.41;5076597;28;45268;-59
2021/07/07 05:46:39;;;;;;;;;4.00;4.00;;;;;23.29;44.61;100858.75;5076800;28;45354;-58
2021/07/07 05:49:04;;;;;;;;;5.75;4.00;;;;;23.30;44.50;100869.22;5076439;27;46076;-59
2021/07/07 05:51:30;;;;;;;;;6.50;5.00;;;;;23.31;44.47;100867.44;5076874;27;45343;-59
2021/07/07 05:53:55;;;;;;;;;4.00;3.00;;;;;23.30;44.46;100863.09;5075203;28;45489;-59
2021/07/07 05:56:21;;;;;;;;;4.25;4.00;;;;;23.32;44.55;100861.16;5076618;28;45348;-59
2021/07/07 05:58:46;;;;;;;;;3.00;3.00;;;;;23.33;44.48;100870.81;5076356;27;45485;-59
2021/07/07 06:01:13;;;;;;;;;4.25;4.25;;;;;23.34;44.65;100869.03;5076273;28;45400;-59
2021/07/07 06:03:39;;;;;;;;;3.00;3.00;;;;;23.33;44.66;100873.44;5076541;27;45813;-59
2021/07/07 06:06:04;;;;;;;;;5.00;4.00;;;;;23.32;44.82;100877.03;5076617;27;45504;-59
2021/07/07 06:08:30;;;;;;;;;4.00;4.00;;;;;23.32;44.70;100882.31;5076490;27;46477;-59
2021/07/07 06:10:55;;;;;;;;;3.50;3.50;;;;;23.32;44.69;100887.63;5076257;28;45357;-59
2021/07/07 06:13:21;;;;;;;;;5.50;4.50;;;;;23.34;44.84;100874.31;5076375;27;45505;-59
2021/07/07 06:15:46;;;;;;;;;4.50;3.50;;;;;23.34;44.91;100879.59;5076450;27;45315;-58
2021/07/07 06:18:11;;;;;;;;;4.00;4.00;;;;;23.32;44.59;100879.69;5075768;27;45336;-59
2021/07/07 06:20:37;;;;;;;;;4.25;4.00;;;;;23.35;45.11;100892.72;5077914;28;45378;-59
2021/07/07 06:23:03;;;;;;;;;7.25;4.25;;;;;23.35;44.81;100882.13;5078795;28;45448;-59
2021/07/07 06:25:28;;;;;;;;;5.00;3.75;;;;;23.37;44.91;100889.97;5079821;27;45477;-59
2021/07/07 06:27:54;;;;;;;;;4.75;4.50;;;;;23.34;44.74;100879.59;5079438;27;45353;-59
2021/07/07 06:30:25;;;;;;;;;7.25;4.25;;;;;23.36;44.77;100888.28;5078191;27;45360;-59
2021/07/07 06:32:52;;;;;;;;;3.75;3.75;;;;;23.35;44.59;100884.78;5079452;27;45247;-59
2021/07/07 06:35:18;;;;;;;;;4.00;4.00;;;;;23.35;44.59;100890.06;5079676;27;45569;-59
2021/07/07 06:37:44;;;;;;;;;5.75;3.00;;;;;23.37;44.70;100900.56;5079236;27;46248;-60
2021/07/07 06:40:10;;;;;;;;;5.00;3.25;;;;;23.37;44.80;100895.28;5079035;27;45367;-60
2021/07/07 06:42:36;;;;;;;;;4.00;4.00;;;;;23.37;44.37;100885.53;5079335;27;45307;-60
2021/07/07 06:45:03;;;;;;;;;4.25;3.00;;;;;23.38;44.69;100900.44;5079840;27;45286;-60
2021/07/07 06:47:29;;;;;;;;;6.25;4.00;;;;;23.36;44.76;100897.06;5079287;27;47111;-60
2021/07/07 06:49:55;;;;;;;;;5.00;4.75;;;;;23.37;44.72;100903.22;5077906;27;45296;-60
2021/07/07 06:52:20;;;;;;;;;5.75;5.00;;;;;23.37;44.70;100906.69;5079378;27;45273;-60
2021/07/07 06:54:46;;;;;;;;;5.50;5.50;;;;;23.38;44.57;100896.94;5079244;27;45337;-60
2021/07/07 06:57:12;;;;;;;;;4.25;4.00;;;;;23.38;44.75;100897.81;5078939;27;46334;-60
2021/07/07 06:59:37;;;;;;;;;6.75;5.00;;;;;23.39;44.57;100907.44;5078941;27;45253;-60
2021/07/07 07:02:04;;;;;;;;;5.75;5.00;;;;;23.39;44.72;100906.56;5079513;28;45245;-60
2021/07/07 07:04:30;;;;;;;;;4.25;4.25;;;;;23.40;44.62;100910.91;5079096;27;45627;-60
2021/07/07 07:06:57;;;;;;;;;4.25;4.00;;;;;23.39;44.66;100911.84;5078999;28;46677;-60
2021/07/07 07:09:23;;;;;;;;;4.50;4.50;;;;;23.37;44.40;100917.25;5078728;28;45264;-60
2021/07/07 07:11:48;;;;;;;;;8.75;4.50;;;;;23.33;44.35;100914.94;5078951;27;45393;-60
2021/07/07 07:14:13;;;;;;;;;6.75;5.00;;;;;23.35;44.99;100921.78;5079054;28;45286;-60
2021/07/07 07:16:39;;;;;;;;;5.50;4.75;;;;;23.37;44.66;100921.72;5078687;28;46006;-59
2021/07/07 07:19:04;;;;;;;;;5.75;5.75;;;;;23.36;44.46;100925.31;5079002;27;45359;-60
2021/07/07 07:21:29;;;;;;;;;4.00;4.00;;;;;23.35;44.72;100927.09;5078827;27;45223;-60
2021/07/07 07:23:55;;;;;;;;;6.25;4.25;;;;;23.35;44.79;100929.72;5078571;27;45530;-60
2021/07/07 07:26:20;;;;;;;;;5.75;5.50;;;;;23.38;44.56;100931.31;5078422;27;45286;-59
2021/07/07 07:28:46;;;;;;;;;4.75;4.75;;;;;23.38;44.76;100932.19;5078520;28;45447;-59
2021/07/07 07:31:12;;;;;;;;;6.50;5.00;;;;;23.38;44.57;100939.25;5078362;27;45299;-59
2021/07/07 07:33:37;;;;;;;;;5.00;5.00;;;;;23.37;44.68;100937.59;5079236;27;45499;-59
2021/07/07 07:36:03;;;;;;;;;5.00;4.25;;;;;23.34;44.60;100938.63;5078723;27;46178;-59
2021/07/07 07:38:38;;;;;;;;;8.00;6.00;;;;;23.35;44.51;100947.41;5078159;27;45484;-59
2021/07/07 07:41:04;;;;;;;;;6.00;6.00;;;;;23.34;44.62;100943.91;5078587;27;45407;-59
2021/07/07 07:43:29;;;;;;;;;5.25;5.25;;;;;23.36;44.39;100949.13;5078427;27;45462;-59
2021/07/07 07:45:55;;;;;;;;;5.25;4.25;;;;;23.35;44.45;100945.59;5076952;28;46162;-60
2021/07/07 07:48:22;;;;;;;;;5.75;5.00;;;;;23.34;44.45;100949.19;5078296;27;45531;-60
2021/07/07 07:50:48;;;;;;;;;7.75;6.25;;;;;23.36;44.46;100951.75;5078358;27;45425;-59
2021/07/07 07:53:14;;;;;;;;;7.00;5.00;;;;;23.39;44.53;100952.41;5078506;27;45565;-59
2021/07/07 07:55:39;;;;;;;;;4.75;4.75;;;;;23.42;44.61;100952.19;5077999;27;46335;-59
2021/07/07 07:58:05;;;;;;;;;5.00;5.00;;;;;23.44;44.53;100955.56;5078557;27;45247;-59
2021/07/07 08:00:30;;;;;;;;;7.00;5.75;;;;;23.47;44.32;100959.84;5078248;28;45258;-58
2021/07/07 08:02:56;;;;;;;;;7.25;6.00;;;;;23.49;44.39;100957.06;5078257;28;45393;-59
2021/07/07 08:05:21;;;;;;;;;8.00;6.50;;;;;23.50;44.17;100954.31;5078037;28;47352;-59
2021/07/07 08:07:47;;;;;;;;;8.25;6.50;;;;;23.50;44.28;100964.06;5078069;27;45393;-60
2021/07/07 08:10:16;;;;;;;;;5.50;4.25;;;;;23.52;44.12;100962.16;5076758;28;45291;-59
2021/07/07 08:12:42;;;;;;;;;5.75;5.75;;;;;23.53;44.24;100963.88;5078327;27;45431;-59
2021/07/07 08:15:09;;;;;;;;;4.25;4.25;;;;;23.53;43.98;100966.50;5078172;28;45449;-59
2021/07/07 08:17:35;;;;;;;;;7.00;7.00;;;;;23.56;44.40;100975.09;5078078;28;45699;-59
2021/07/07 08:20:00;;;;;;;;;6.00;6.00;;;;;23.57;44.03;100973.28;5077904;27;45169;-60
2021/07/07 08:22:25;;;;;;;;;6.00;6.00;;;;;23.57;44.05;100970.63;5093903;27;45272;-60
2021/07/07 08:24:52;;;;;;;;;8.25;5.00;;;;;23.56;44.18;100974.22;5077628;27;46118;-60
2021/07/07 08:27:18;;;;;;;;;7.75;4.50;;;;;23.57;44.35;100973.28;5077774;27;45769;-59
2021/07/07 08:29:43;;;;;;;;;8.50;8.50;;;;;23.57;44.01;100973.28;5077975;27;45224;-58
2021/07/07 08:32:09;;;;;;;;;7.00;6.50;;;;;23.56;44.31;100979.53;5078192;28;45298;-59
2021/07/07 08:34:35;;;;;;;;;8.00;6.50;;;;;23.56;44.04;100976.88;5077548;27;45466;-59
2021/07/07 08:37:00;;;;;;;;;5.00;5.00;;;;;23.57;44.00;100981.22;5077782;27;45696;-59
2021/07/07 08:39:27;;;;;;;;;4.50;4.00;;;;;23.56;44.25;100982.16;5077604;28;45475;-59
2021/07/07 08:41:53;;;;;;;;;6.25;5.25;;;;;23.56;44.14;100992.75;5077072;27;45534;-58
2021/07/07 08:44:18;;;;;;;;;6.00;6.00;;;;;23.57;43.87;100994.44;5076268;28;46433;-59
2021/07/07 08:46:44;;;;;;;;;5.00;5.00;;;;;23.56;43.81;100990.97;5076008;28;45291;-58
2021/07/07 08:49:09;;;;;;;;;4.75;4.75;;;;;23.57;44.02;101005.91;5077817;27;45317;-61
2021/07/07 08:51:40;;;;;;;;;6.25;6.00;;;;;23.54;43.91;100994.63;5077779;27;45508;-58
2021/07/07 08:54:06;;;;;;;;;5.25;5.25;;;;;23.53;43.74;100990.31;5077166;27;46389;-59
2021/07/07 08:56:31;;;;;;;;;7.00;5.25;;;;;23.55;43.95;100988.41;5077239;27;45746;-59
2021/07/07 08:58:57;;;;;;;;;5.00;5.00;;;;;23.55;43.59;100994.56;5077269;28;45396;-58
2021/07/07 09:01:22;;;;;;;;;5.75;5.75;;;;;23.57;43.75;100991.81;5093249;27;45319;-59
2021/07/07 09:03:47;;;;;;;;;6.75;5.75;;;;;23.57;43.85;100997.09;5076935;27;46079;-60
2021/07/07 09:06:13;;;;;;;;;7.00;5.25;;;;;23.56;43.73;100990.09;5076944;28;45358;-59
2021/07/07 09:08:49;;;;;;;;;6.00;6.00;;;;;23.54;43.77;100992.84;5077432;27;45430;-59
2021/07/07 09:11:23;;;;;;;;;5.00;5.00;;;;;23.53;43.79;100996.44;5077247;27;45405;-59
2021/07/07 09:14:06;;;;;;;;;5.00;5.00;;;;;23.53;43.83;100995.63;5076974;27;46194;-59
2021/07/07 09:16:55;;;;;;;;;6.50;5.00;;;;;23.53;43.61;101001.75;5076993;27;45343;-61
2021/07/07 09:19:26;;;;;;;;;4.00;4.00;;;;;23.50;43.79;101001.09;5076892;27;45322;-62
2021/07/07 09:22:00;;;;;;;;;7.75;6.00;;;;;23.51;43.81;101006.28;5077068;27;45248;-61
2021/07/07 09:24:25;;;;;;;;;8.75;7.00;;;;;23.49;43.50;101007.34;5076598;27;46338;-61
2021/07/07 09:26:59;;;;;;;;;6.25;5.50;;;;;23.46;43.48;101006.59;5076656;27;45362;-61
2021/07/07 09:29:35;;;;;;;;;5.75;5.25;;;;;23.44;43.91;101008.47;5076876;27;45377;-61
2021/07/07 09:32:10;;;;;;;;;5.50;5.00;;;;;23.45;43.70;101012.81;5076995;27;45318;-65
2021/07/07 09:34:38;;;;;;;;;4.00;4.00;;;;;23.46;43.65;101022.44;5076527;27;47369;-60
2021/07/07 09:37:06;;;;;;;;;6.00;6.00;;;;;23.46;43.29;101017.16;5076675;27;45359;-59
2021/07/07 09:39:32;;;;;;;;;6.75;5.75;;;;;23.47;43.70;101013.56;5076484;27;45251;-61
2021/07/07 09:41:58;;;;;;;;;7.00;5.75;;;;;23.49;43.73;101012.63;5076941;27;45186;-60
2021/07/07 09:44:23;;;;;;;;;5.50;5.25;;;;;23.51;43.75;101023.97;5076332;28;45933;-61
2021/07/07 09:46:48;;;;;;;;;5.50;5.50;;;;;23.51;43.35;101023.97;5076556;28;45267;-60
2021/07/07 09:49:14;;;;;;;;;8.00;6.50;;;;;23.53;43.45;101017.63;5076518;27;46171;-60
2021/07/07 09:51:46;;;;;;;;;6.00;6.00;;;;;23.51;43.29;101013.38;5077000;27;45386;-60
2021/07/07 09:54:12;;;;;;;;;7.50;6.00;;;;;23.53;43.79;101020.25;5079260;27;45684;-60
2021/07/07 09:56:37;;;;;;;;;7.75;7.75;;;;;23.53;43.70;101012.31;5079943;27;45336;-60
2021/07/07 09:59:03;;;;;;;;;5.50;5.50;;;;;23.55;43.25;101014.84;5080197;27;45433;-60
2021/07/07 10:01:28;;;;;;;;;7.00;7.00;;;;;23.53;43.63;101014.97;5078925;28;45557;-60
2021/07/07 10:03:56;;;;;;;;;5.50;5.25;;;;;23.56;43.59;101011.25;5079761;28;46088;-60
2021/07/07 10:06:22;;;;;;;;;7.00;6.00;;;;;23.56;43.94;101016.56;5079862;27;45888;-61
2021/07/07 10:08:48;;;;;;;;;5.50;5.50;;;;;23.60;43.82;101012.78;5080027;27;45306;-60
2021/07/07 10:11:16;;;;;;;;;7.75;6.25;;;;;23.61;43.50;101010.00;5080384;27;45464;-61
2021/07/07 10:13:41;;;;;;;;;7.00;7.00;;;;;23.62;43.30;101017.00;5079914;27;47976;-61
2021/07/07 10:16:07;;;;;;;;;9.25;6.25;;;;;23.64;43.60;101019.56;5079639;27;45390;-61
2021/07/07 10:18:33;;;;;;;;;7.75;7.75;;;;;23.63;43.49;101018.69;5079992;27;45332;-59
2021/07/07 10:20:59;;;;;;;;;10.00;6.50;;;;;23.65;43.57;101015.94;5079922;27;45374;-60
2021/07/07 10:23:26;;;;;;;;;8.50;7.00;;;;;23.67;43.75;101018.50;5079587;27;46218;-61
2021/07/07 10:25:53;;;;;;;;;7.75;6.25;;;;;23.65;43.79;101013.31;5079606;27;45476;-60
2021/07/07 10:28:19;;;;;;;;;10.00;7.75;;;;;23.66;43.62;101015.00;5079636;28;45329;-60
2021/07/07 10:30:47;;;;;;;;;6.00;6.00;;;;;23.67;43.53;101011.41;5080093;28;45190;-61
2021/07/07 10:33:12;;;;;;;;;8.50;6.50;;;;;23.67;43.70;101014.06;5079626;28;47153;-60
2021/07/07 10:35:39;;;;;;;;;6.50;6.50;;;;;23.69;43.83;101012.16;5079346;28;45426;-61
2021/07/07 10:38:05;;;;;;;;;8.25;6.75;;;;;23.71;43.52;101015.56;5079539;27;45733;-60
2021/07/07 10:40:34;;;;;;;;;7.00;7.00;;;;;23.72;43.48;101016.41;5079750;27;45370;-60
2021/07/07 10:43:00;;;;;;;;;6.50;4.75;;;;;23.69;43.92;101012.16;5079192;27;46370;-60
2021/07/07 10:45:42;;;;;;;;;7.50;6.50;;;;;23.73;43.69;101013.66;5079390;27;45221;-61
2021/07/07 10:48:26;;;;;;;;;8.75;8.00;;;;;23.74;43.94;101015.38;5079410;27;45378;-62
2021/07/07 10:51:15;;;;;;;;;6.50;6.25;;;;;23.74;43.76;101015.38;5079718;27;45629;-61
2021/07/07 10:53:41;;;;;;;;;7.00;6.25;;;;;23.75;43.55;101011.78;5070811;27;45361;-61
2021/07/07 10:56:07;;;;;;;;;6.50;6.00;;;;;23.76;43.59;101002.84;5079183;28;45287;-60
2021/07/07 10:58:35;;;;;;;;;9.00;7.00;;;;;23.76;43.19;101010.78;5079233;27;45244;-61
2021/07/07 11:01:02;;;;;;;;;8.50;6.00;;;;;23.76;43.46;101013.44;5079280;28;45539;-61
2021/07/07 11:03:33;;;;;;;;;7.50;6.50;;;;;23.76;43.28;101012.59;5078742;27;46346;-60
2021/07/07 11:06:23;;;;;;;;;6.25;6.00;;;;;23.77;43.35;101017.78;5078180;27;45286;-60
2021/07/07 11:08:49;;;;;;;;;8.25;8.25;;;;;23.77;43.15;101014.31;5078928;27;45367;-60
2021/07/07 11:11:23;;;;;;;;;9.75;7.00;;;;;23.75;43.43;101016.19;5079450;28;45521;-61
2021/07/07 11:13:49;;;;;;;;;8.50;8.50;;;;;23.75;43.28;101016.19;5078679;27;46190;-61
2021/07/07 11:16:20;;;;;;;;;8.25;5.25;;;;;23.74;43.52;101025.94;5079155;27;45766;-59
2021/07/07 11:18:47;;;;;;;;;5.25;5.25;;;;;23.69;43.33;101021.91;5079182;27;45440;-60
2021/07/07 11:21:13;;;;;;;;;8.25;8.25;;;;;23.69;43.12;101028.03;5078914;27;45554;-60